Mc Alisterville, Pennsylvania
Current Conditions -  °F | °C
As of 6:53 AM on Thursday 18 Dec 2014 (Local Time) from KSEG Reporting Station
Overcast Overcast  
Wind Chill: 27°   Ceiling: 3100
Heat Index: 34°   Visibility: 10mi
Dew Point: 22°   Wind: 8mph
Humidity: 61%   Direction: 290°WNW
Pressure: 30.07"   Gusts: NA
Location:  40.6534°N, 77.2807°W
Report Text: KSEG 181153Z AUTO 29007KT 260V320 10SM OVC031 01/M06 A3007 RMK AO2 SLP188 T00111056 10017 20006 51006
Loading
Personal Weather Stations






























Interactive Weather Map New forecast layout! Learn more

10-Day Weather Forecast

Advertisements
Track Severe Weather on mobile